sensor_id;sensor_type;location;lat;lon;timestamp;P1;durP1;ratioP1;P2;durP2;ratioP2
75971;SDS011;64651;47.540;19.088;2024-01-30T00:00:59;41.50;;;17.80;;
75971;SDS011;64651;47.540;19.088;2024-01-30T00:06:02;41.43;;;18.93;;
75971;SDS011;64651;47.540;19.088;2024-01-30T00:11:07;47.05;;;19.92;;
75971;SDS011;64651;47.540;19.088;2024-01-30T00:16:19;40.47;;;18.02;;
75971;SDS011;64651;47.540;19.088;2024-01-30T00:21:22;39.85;;;17.27;;
75971;SDS011;64651;47.540;19.088;2024-01-30T00:26:25;42.00;;;18.20;;
75971;SDS011;64651;47.540;19.088;2024-01-30T00:31:27;37.97;;;17.07;;
75971;SDS011;64651;47.540;19.088;2024-01-30T00:36:29;45.67;;;16.95;;
75971;SDS011;64651;47.540;19.088;2024-01-30T00:41:32;42.10;;;17.73;;
75971;SDS011;64651;47.540;19.088;2024-01-30T00:46:34;38.55;;;17.27;;
75971;SDS011;64651;47.540;19.088;2024-01-30T00:51:37;41.80;;;17.40;;
75971;SDS011;64651;47.540;19.088;2024-01-30T00:56:39;41.60;;;18.00;;
75971;SDS011;64651;47.540;19.088;2024-01-30T01:01:41;43.20;;;18.40;;
75971;SDS011;64651;47.540;19.088;2024-01-30T01:06:44;41.83;;;19.02;;
75971;SDS011;64651;47.540;19.088;2024-01-30T01:11:46;43.40;;;18.90;;
75971;SDS011;64651;47.540;19.088;2024-01-30T01:16:49;45.35;;;19.60;;
75971;SDS011;64651;47.540;19.088;2024-01-30T01:21:51;44.47;;;19.17;;
75971;SDS011;64651;47.540;19.088;2024-01-30T01:26:54;45.38;;;19.52;;
75971;SDS011;64651;47.540;19.088;2024-01-30T01:31:58;48.78;;;20.95;;
75971;SDS011;64651;47.540;19.088;2024-01-30T01:37:00;49.75;;;21.87;;
75971;SDS011;64651;47.540;19.088;2024-01-30T01:42:03;48.53;;;22.10;;
75971;SDS011;64651;47.540;19.088;2024-01-30T01:47:06;50.50;;;22.77;;
75971;SDS011;64651;47.540;19.088;2024-01-30T01:52:08;51.37;;;21.48;;
75971;SDS011;64651;47.540;19.088;2024-01-30T01:57:11;45.22;;;21.05;;
75971;SDS011;64651;47.540;19.088;2024-01-30T02:02:14;52.33;;;21.17;;
75971;SDS011;64651;47.540;19.088;2024-01-30T02:07:19;53.25;;;22.20;;
75971;SDS011;64651;47.540;19.088;2024-01-30T02:12:22;52.67;;;23.20;;
75971;SDS011;64651;47.540;19.088;2024-01-30T02:17:24;52.47;;;22.35;;
75971;SDS011;64651;47.540;19.088;2024-01-30T02:22:27;53.65;;;21.87;;
75971;SDS011;64651;47.540;19.088;2024-01-30T02:27:29;49.75;;;21.27;;
75971;SDS011;64651;47.540;19.088;2024-01-30T02:32:32;51.08;;;21.85;;
75971;SDS011;64651;47.540;19.088;2024-01-30T02:37:34;55.13;;;23.80;;
75971;SDS011;64651;47.540;19.088;2024-01-30T02:42:36;52.95;;;24.00;;
75971;SDS011;64651;47.540;19.088;2024-01-30T02:47:39;54.20;;;22.90;;
75971;SDS011;64651;47.540;19.088;2024-01-30T02:52:42;53.00;;;22.60;;
75971;SDS011;64651;47.540;19.088;2024-01-30T02:57:47;53.55;;;22.50;;
75971;SDS011;64651;47.540;19.088;2024-01-30T03:02:49;52.70;;;22.27;;
75971;SDS011;64651;47.540;19.088;2024-01-30T03:07:51;56.60;;;23.52;;
75971;SDS011;64651;47.540;19.088;2024-01-30T03:12:54;48.92;;;22.08;;
75971;SDS011;64651;47.540;19.088;2024-01-30T03:17:56;56.47;;;23.12;;
75971;SDS011;64651;47.540;19.088;2024-01-30T03:22:59;54.08;;;23.75;;
75971;SDS011;64651;47.540;19.088;2024-01-30T03:28:02;54.40;;;24.53;;
75971;SDS011;64651;47.540;19.088;2024-01-30T03:33:04;49.08;;;21.50;;
75971;SDS011;64651;47.540;19.088;2024-01-30T03:38:07;51.30;;;22.95;;
75971;SDS011;64651;47.540;19.088;2024-01-30T03:43:09;47.47;;;19.62;;
75971;SDS011;64651;47.540;19.088;2024-01-30T03:48:11;45.00;;;19.17;;
75971;SDS011;64651;47.540;19.088;2024-01-30T03:53:14;49.93;;;21.10;;
75971;SDS011;64651;47.540;19.088;2024-01-30T03:58:16;54.10;;;21.37;;
75971;SDS011;64651;47.540;19.088;2024-01-30T04:03:18;52.30;;;21.40;;
75971;SDS011;64651;47.540;19.088;2024-01-30T04:08:21;48.42;;;20.85;;
75971;SDS011;64651;47.540;19.088;2024-01-30T04:13:23;58.78;;;23.95;;
75971;SDS011;64651;47.540;19.088;2024-01-30T04:18:25;60.27;;;23.17;;
75971;SDS011;64651;47.540;19.088;2024-01-30T04:23:28;51.78;;;23.48;;
75971;SDS011;64651;47.540;19.088;2024-01-30T04:28:30;50.92;;;22.73;;
75971;SDS011;64651;47.540;19.088;2024-01-30T04:33:32;51.67;;;22.20;;
75971;SDS011;64651;47.540;19.088;2024-01-30T04:38:34;58.95;;;23.17;;
75971;SDS011;64651;47.540;19.088;2024-01-30T04:43:37;46.27;;;20.33;;
75971;SDS011;64651;47.540;19.088;2024-01-30T04:48:39;62.15;;;25.20;;
75971;SDS011;64651;47.540;19.088;2024-01-30T04:53:42;52.70;;;20.90;;
75971;SDS011;64651;47.540;19.088;2024-01-30T04:58:44;48.53;;;21.08;;
75971;SDS011;64651;47.540;19.088;2024-01-30T05:03:47;48.87;;;21.15;;
75971;SDS011;64651;47.540;19.088;2024-01-30T05:08:49;45.80;;;19.30;;
75971;SDS011;64651;47.540;19.088;2024-01-30T05:13:51;50.92;;;21.17;;
75971;SDS011;64651;47.540;19.088;2024-01-30T05:18:53;46.80;;;18.98;;
75971;SDS011;64651;47.540;19.088;2024-01-30T05:23:56;40.45;;;18.60;;
75971;SDS011;64651;47.540;19.088;2024-01-30T05:28:58;44.95;;;17.87;;
75971;SDS011;64651;47.540;19.088;2024-01-30T05:34:00;41.67;;;17.67;;
75971;SDS011;64651;47.540;19.088;2024-01-30T05:39:04;39.38;;;17.42;;
75971;SDS011;64651;47.540;19.088;2024-01-30T05:44:09;44.95;;;20.62;;
75971;SDS011;64651;47.540;19.088;2024-01-30T05:49:12;41.83;;;18.45;;
75971;SDS011;64651;47.540;19.088;2024-01-30T05:54:14;38.97;;;17.05;;
75971;SDS011;64651;47.540;19.088;2024-01-30T05:59:18;45.00;;;19.00;;
75971;SDS011;64651;47.540;19.088;2024-01-30T06:04:21;43.95;;;19.33;;
75971;SDS011;64651;47.540;19.088;2024-01-30T06:09:23;39.28;;;16.55;;
75971;SDS011;64651;47.540;19.088;2024-01-30T06:14:25;42.90;;;16.62;;
75971;SDS011;64651;47.540;19.088;2024-01-30T06:19:27;48.42;;;19.45;;
75971;SDS011;64651;47.540;19.088;2024-01-30T06:24:30;46.93;;;20.20;;
75971;SDS011;64651;47.540;19.088;2024-01-30T06:29:32;45.90;;;18.60;;
75971;SDS011;64651;47.540;19.088;2024-01-30T06:34:35;50.00;;;21.08;;
75971;SDS011;64651;47.540;19.088;2024-01-30T06:39:37;55.17;;;23.02;;
75971;SDS011;64651;47.540;19.088;2024-01-30T06:44:39;52.60;;;23.50;;
75971;SDS011;64651;47.540;19.088;2024-01-30T06:49:42;40.80;;;17.90;;
75971;SDS011;64651;47.540;19.088;2024-01-30T06:54:46;39.90;;;16.40;;
75971;SDS011;64651;47.540;19.088;2024-01-30T06:59:48;38.92;;;16.98;;
75971;SDS011;64651;47.540;19.088;2024-01-30T07:04:50;35.63;;;16.33;;
75971;SDS011;64651;47.540;19.088;2024-01-30T07:09:52;41.05;;;17.33;;
75971;SDS011;64651;47.540;19.088;2024-01-30T07:14:59;38.03;;;16.80;;
75971;SDS011;64651;47.540;19.088;2024-01-30T07:20:01;43.47;;;18.37;;
75971;SDS011;64651;47.540;19.088;2024-01-30T07:25:08;41.85;;;18.12;;
75971;SDS011;64651;47.540;19.088;2024-01-30T07:30:11;41.80;;;18.23;;
75971;SDS011;64651;47.540;19.088;2024-01-30T07:35:23;43.58;;;17.83;;
75971;SDS011;64651;47.540;19.088;2024-01-30T07:40:25;42.40;;;18.20;;
75971;SDS011;64651;47.540;19.088;2024-01-30T07:45:27;49.97;;;20.50;;
75971;SDS011;64651;47.540;19.088;2024-01-30T07:50:34;44.00;;;20.00;;
75971;SDS011;64651;47.540;19.088;2024-01-30T07:55:36;43.03;;;19.33;;
75971;SDS011;64651;47.540;19.088;2024-01-30T08:01:15;47.95;;;19.98;;
75971;SDS011;64651;47.540;19.088;2024-01-30T08:06:18;48.17;;;20.13;;
75971;SDS011;64651;47.540;19.088;2024-01-30T08:11:21;56.17;;;22.13;;
75971;SDS011;64651;47.540;19.088;2024-01-30T08:16:27;50.20;;;21.95;;
75971;SDS011;64651;47.540;19.088;2024-01-30T08:21:29;48.72;;;22.48;;
75971;SDS011;64651;47.540;19.088;2024-01-30T08:26:32;48.25;;;22.23;;
75971;SDS011;64651;47.540;19.088;2024-01-30T08:31:34;49.93;;;21.83;;
75971;SDS011;64651;47.540;19.088;2024-01-30T08:36:37;48.72;;;20.65;;
75971;SDS011;64651;47.540;19.088;2024-01-30T08:41:39;49.50;;;22.33;;
75971;SDS011;64651;47.540;19.088;2024-01-30T08:46:41;46.50;;;19.77;;
75971;SDS011;64651;47.540;19.088;2024-01-30T08:51:44;45.12;;;20.15;;
75971;SDS011;64651;47.540;19.088;2024-01-30T08:56:46;43.20;;;19.23;;
75971;SDS011;64651;47.540;19.088;2024-01-30T09:01:48;42.90;;;20.00;;
75971;SDS011;64651;47.540;19.088;2024-01-30T09:07:04;43.13;;;19.20;;
75971;SDS011;64651;47.540;19.088;2024-01-30T09:12:11;39.67;;;19.85;;
75971;SDS011;64651;47.540;19.088;2024-01-30T09:17:14;37.63;;;18.67;;
75971;SDS011;64651;47.540;19.088;2024-01-30T09:22:16;40.10;;;18.73;;
75971;SDS011;64651;47.540;19.088;2024-01-30T09:27:18;39.22;;;18.85;;
75971;SDS011;64651;47.540;19.088;2024-01-30T09:32:20;36.92;;;17.95;;
75971;SDS011;64651;47.540;19.088;2024-01-30T09:37:23;37.30;;;19.05;;
75971;SDS011;64651;47.540;19.088;2024-01-30T09:42:33;38.28;;;18.87;;
75971;SDS011;64651;47.540;19.088;2024-01-30T09:47:41;36.97;;;18.77;;
75971;SDS011;64651;47.540;19.088;2024-01-30T09:52:46;39.17;;;19.73;;
75971;SDS011;64651;47.540;19.088;2024-01-30T09:57:48;39.17;;;19.08;;
75971;SDS011;64651;47.540;19.088;2024-01-30T10:02:51;36.20;;;18.95;;
75971;SDS011;64651;47.540;19.088;2024-01-30T10:07:54;34.38;;;18.70;;
75971;SDS011;64651;47.540;19.088;2024-01-30T10:12:58;34.90;;;19.37;;
75971;SDS011;64651;47.540;19.088;2024-01-30T10:18:04;38.30;;;20.40;;
75971;SDS011;64651;47.540;19.088;2024-01-30T10:23:08;36.03;;;20.05;;
75971;SDS011;64651;47.540;19.088;2024-01-30T10:28:11;35.80;;;18.55;;
75971;SDS011;64651;47.540;19.088;2024-01-30T10:33:13;34.75;;;21.05;;
75971;SDS011;64651;47.540;19.088;2024-01-30T10:38:16;29.10;;;16.17;;
75971;SDS011;64651;47.540;19.088;2024-01-30T10:43:22;29.42;;;17.15;;
75971;SDS011;64651;47.540;19.088;2024-01-30T10:48:26;26.85;;;15.38;;
75971;SDS011;64651;47.540;19.088;2024-01-30T10:53:32;25.42;;;15.32;;
75971;SDS011;64651;47.540;19.088;2024-01-30T10:58:36;25.15;;;14.57;;
75971;SDS011;64651;47.540;19.088;2024-01-30T11:03:38;27.87;;;14.70;;
75971;SDS011;64651;47.540;19.088;2024-01-30T11:08:41;28.48;;;16.00;;
75971;SDS011;64651;47.540;19.088;2024-01-30T11:13:43;28.55;;;15.93;;
75971;SDS011;64651;47.540;19.088;2024-01-30T11:18:49;28.17;;;15.10;;
75971;SDS011;64651;47.540;19.088;2024-01-30T11:23:54;26.10;;;14.48;;
75971;SDS011;64651;47.540;19.088;2024-01-30T11:28:57;27.40;;;15.53;;
75971;SDS011;64651;47.540;19.088;2024-01-30T11:34:00;27.17;;;15.32;;
75971;SDS011;64651;47.540;19.088;2024-01-30T11:39:03;22.67;;;14.43;;
75971;SDS011;64651;47.540;19.088;2024-01-30T11:44:05;23.77;;;14.18;;
75971;SDS011;64651;47.540;19.088;2024-01-30T11:49:08;23.08;;;13.52;;
75971;SDS011;64651;47.540;19.088;2024-01-30T11:54:10;23.53;;;13.50;;
75971;SDS011;64651;47.540;19.088;2024-01-30T11:59:13;23.30;;;12.85;;
75971;SDS011;64651;47.540;19.088;2024-01-30T12:04:16;22.95;;;13.15;;
75971;SDS011;64651;47.540;19.088;2024-01-30T12:09:18;22.90;;;13.25;;
75971;SDS011;64651;47.540;19.088;2024-01-30T12:14:20;21.80;;;12.32;;
75971;SDS011;64651;47.540;19.088;2024-01-30T12:19:25;18.80;;;10.70;;
75971;SDS011;64651;47.540;19.088;2024-01-30T12:24:28;18.75;;;10.40;;
75971;SDS011;64651;47.540;19.088;2024-01-30T12:29:32;19.70;;;10.93;;
75971;SDS011;64651;47.540;19.088;2024-01-30T12:34:40;19.50;;;11.60;;
75971;SDS011;64651;47.540;19.088;2024-01-30T12:39:57;19.30;;;9.73;;
75971;SDS011;64651;47.540;19.088;2024-01-30T12:45:01;17.47;;;9.27;;
75971;SDS011;64651;47.540;19.088;2024-01-30T12:50:05;16.30;;;8.60;;
75971;SDS011;64651;47.540;19.088;2024-01-30T12:55:08;14.98;;;8.18;;
75971;SDS011;64651;47.540;19.088;2024-01-30T13:00:10;14.77;;;8.25;;
75971;SDS011;64651;47.540;19.088;2024-01-30T13:05:13;15.63;;;8.05;;
75971;SDS011;64651;47.540;19.088;2024-01-30T13:10:15;17.13;;;8.53;;
75971;SDS011;64651;47.540;19.088;2024-01-30T13:15:18;16.83;;;8.55;;
75971;SDS011;64651;47.540;19.088;2024-01-30T13:20:20;16.33;;;7.75;;
75971;SDS011;64651;47.540;19.088;2024-01-30T13:25:23;14.77;;;6.97;;
75971;SDS011;64651;47.540;19.088;2024-01-30T13:30:28;14.63;;;6.62;;
75971;SDS011;64651;47.540;19.088;2024-01-30T13:35:30;14.80;;;6.93;;
75971;SDS011;64651;47.540;19.088;2024-01-30T13:40:32;14.25;;;7.00;;
75971;SDS011;64651;47.540;19.088;2024-01-30T13:45:35;14.73;;;6.90;;
75971;SDS011;64651;47.540;19.088;2024-01-30T13:50:37;12.02;;;5.20;;
75971;SDS011;64651;47.540;19.088;2024-01-30T13:55:39;14.20;;;6.62;;
75971;SDS011;64651;47.540;19.088;2024-01-30T14:00:41;13.70;;;6.93;;
75971;SDS011;64651;47.540;19.088;2024-01-30T14:05:44;12.25;;;6.35;;
75971;SDS011;64651;47.540;19.088;2024-01-30T14:10:46;13.98;;;6.82;;
75971;SDS011;64651;47.540;19.088;2024-01-30T14:15:49;12.88;;;6.50;;
75971;SDS011;64651;47.540;19.088;2024-01-30T14:20:51;14.45;;;6.80;;
75971;SDS011;64651;47.540;19.088;2024-01-30T14:25:53;13.63;;;6.37;;
75971;SDS011;64651;47.540;19.088;2024-01-30T14:30:56;13.15;;;6.37;;
75971;SDS011;64651;47.540;19.088;2024-01-30T14:35:58;13.38;;;6.43;;
75971;SDS011;64651;47.540;19.088;2024-01-30T14:41:01;14.18;;;7.10;;
75971;SDS011;64651;47.540;19.088;2024-01-30T14:46:03;14.30;;;6.80;;
75971;SDS011;64651;47.540;19.088;2024-01-30T14:51:08;14.03;;;6.97;;
75971;SDS011;64651;47.540;19.088;2024-01-30T14:56:10;13.80;;;7.30;;
75971;SDS011;64651;47.540;19.088;2024-01-30T15:01:13;15.95;;;7.37;;
75971;SDS011;64651;47.540;19.088;2024-01-30T15:06:15;15.88;;;8.38;;
75971;SDS011;64651;47.540;19.088;2024-01-30T15:11:18;15.75;;;7.85;;
75971;SDS011;64651;47.540;19.088;2024-01-30T15:16:20;15.97;;;7.70;;
75971;SDS011;64651;47.540;19.088;2024-01-30T15:21:23;14.65;;;7.10;;
75971;SDS011;64651;47.540;19.088;2024-01-30T15:26:27;15.20;;;7.25;;
75971;SDS011;64651;47.540;19.088;2024-01-30T15:31:29;17.30;;;7.35;;
75971;SDS011;64651;47.540;19.088;2024-01-30T15:36:32;16.70;;;7.32;;
75971;SDS011;64651;47.540;19.088;2024-01-30T15:41:34;20.10;;;8.23;;
75971;SDS011;64651;47.540;19.088;2024-01-30T15:46:36;19.87;;;8.43;;
75971;SDS011;64651;47.540;19.088;2024-01-30T15:51:39;17.30;;;7.62;;
75971;SDS011;64651;47.540;19.088;2024-01-30T15:56:41;18.33;;;7.93;;
75971;SDS011;64651;47.540;19.088;2024-01-30T16:01:44;17.87;;;7.65;;
75971;SDS011;64651;47.540;19.088;2024-01-30T16:06:51;21.50;;;8.67;;
75971;SDS011;64651;47.540;19.088;2024-01-30T16:11:53;23.58;;;9.00;;
75971;SDS011;64651;47.540;19.088;2024-01-30T16:16:56;20.17;;;9.02;;
75971;SDS011;64651;47.540;19.088;2024-01-30T16:21:58;21.17;;;9.07;;
75971;SDS011;64651;47.540;19.088;2024-01-30T16:27:01;22.48;;;9.52;;
75971;SDS011;64651;47.540;19.088;2024-01-30T16:32:03;20.00;;;8.93;;
75971;SDS011;64651;47.540;19.088;2024-01-30T16:37:06;24.35;;;10.48;;
75971;SDS011;64651;47.540;19.088;2024-01-30T16:42:08;27.05;;;10.88;;
75971;SDS011;64651;47.540;19.088;2024-01-30T16:47:11;27.10;;;11.57;;
75971;SDS011;64651;47.540;19.088;2024-01-30T16:52:14;27.67;;;11.18;;
75971;SDS011;64651;47.540;19.088;2024-01-30T16:57:16;46.40;;;18.53;;
75971;SDS011;64651;47.540;19.088;2024-01-30T17:02:19;33.15;;;13.35;;
75971;SDS011;64651;47.540;19.088;2024-01-30T17:07:21;32.85;;;13.82;;
75971;SDS011;64651;47.540;19.088;2024-01-30T17:12:25;35.85;;;15.38;;
75971;SDS011;64651;47.540;19.088;2024-01-30T17:17:27;35.65;;;15.25;;
75971;SDS011;64651;47.540;19.088;2024-01-30T17:22:30;37.27;;;16.43;;
75971;SDS011;64651;47.540;19.088;2024-01-30T17:27:33;39.85;;;16.98;;
75971;SDS011;64651;47.540;19.088;2024-01-30T17:32:35;39.20;;;16.80;;
75971;SDS011;64651;47.540;19.088;2024-01-30T17:37:37;39.38;;;18.50;;
75971;SDS011;64651;47.540;19.088;2024-01-30T17:42:40;48.95;;;19.42;;
75971;SDS011;64651;47.540;19.088;2024-01-30T17:47:42;47.03;;;19.63;;
75971;SDS011;64651;47.540;19.088;2024-01-30T17:52:45;46.05;;;21.27;;
75971;SDS011;64651;47.540;19.088;2024-01-30T17:57:47;49.35;;;21.87;;
75971;SDS011;64651;47.540;19.088;2024-01-30T18:02:49;47.35;;;22.15;;
75971;SDS011;64651;47.540;19.088;2024-01-30T18:07:55;50.65;;;22.02;;
75971;SDS011;64651;47.540;19.088;2024-01-30T18:12:57;50.47;;;20.97;;
75971;SDS011;64651;47.540;19.088;2024-01-30T18:18:02;50.60;;;22.13;;
75971;SDS011;64651;47.540;19.088;2024-01-30T18:23:04;42.92;;;19.42;;
75971;SDS011;64651;47.540;19.088;2024-01-30T18:28:07;52.30;;;21.42;;
75971;SDS011;64651;47.540;19.088;2024-01-30T18:33:09;50.28;;;21.37;;
75971;SDS011;64651;47.540;19.088;2024-01-30T18:38:11;45.67;;;19.83;;
75971;SDS011;64651;47.540;19.088;2024-01-30T18:43:15;44.67;;;20.02;;
75971;SDS011;64651;47.540;19.088;2024-01-30T18:48:20;52.58;;;21.33;;
75971;SDS011;64651;47.540;19.088;2024-01-30T18:53:22;48.10;;;21.65;;
75971;SDS011;64651;47.540;19.088;2024-01-30T18:58:24;45.90;;;21.05;;
75971;SDS011;64651;47.540;19.088;2024-01-30T19:03:27;48.07;;;21.97;;
75971;SDS011;64651;47.540;19.088;2024-01-30T19:08:31;48.00;;;21.48;;
75971;SDS011;64651;47.540;19.088;2024-01-30T19:13:33;52.38;;;24.27;;
75971;SDS011;64651;47.540;19.088;2024-01-30T19:18:36;48.00;;;21.67;;
75971;SDS011;64651;47.540;19.088;2024-01-30T19:23:38;49.63;;;21.98;;
75971;SDS011;64651;47.540;19.088;2024-01-30T19:28:41;50.50;;;21.83;;
75971;SDS011;64651;47.540;19.088;2024-01-30T19:33:44;51.13;;;22.92;;
75971;SDS011;64651;47.540;19.088;2024-01-30T19:38:46;51.92;;;22.90;;
75971;SDS011;64651;47.540;19.088;2024-01-30T19:43:49;54.55;;;22.50;;
75971;SDS011;64651;47.540;19.088;2024-01-30T19:48:51;54.22;;;24.50;;
75971;SDS011;64651;47.540;19.088;2024-01-30T19:53:53;57.57;;;25.43;;
75971;SDS011;64651;47.540;19.088;2024-01-30T19:58:56;51.83;;;23.50;;
75971;SDS011;64651;47.540;19.088;2024-01-30T20:03:58;58.87;;;24.12;;
75971;SDS011;64651;47.540;19.088;2024-01-30T20:09:00;52.92;;;24.05;;
75971;SDS011;64651;47.540;19.088;2024-01-30T20:14:02;50.72;;;22.98;;
75971;SDS011;64651;47.540;19.088;2024-01-30T20:19:05;56.47;;;25.33;;
75971;SDS011;64651;47.540;19.088;2024-01-30T20:24:10;54.15;;;24.08;;
75971;SDS011;64651;47.540;19.088;2024-01-30T20:29:12;52.92;;;23.27;;
75971;SDS011;64651;47.540;19.088;2024-01-30T20:34:14;53.75;;;22.83;;
75971;SDS011;64651;47.540;19.088;2024-01-30T20:39:17;49.65;;;22.55;;
75971;SDS011;64651;47.540;19.088;2024-01-30T20:44:19;50.03;;;21.23;;
75971;SDS011;64651;47.540;19.088;2024-01-30T20:49:21;50.83;;;20.92;;
75971;SDS011;64651;47.540;19.088;2024-01-30T20:54:24;53.00;;;22.15;;
75971;SDS011;64651;47.540;19.088;2024-01-30T20:59:27;53.60;;;23.17;;
75971;SDS011;64651;47.540;19.088;2024-01-30T21:04:29;54.80;;;21.27;;
75971;SDS011;64651;47.540;19.088;2024-01-30T21:09:31;46.90;;;21.43;;
75971;SDS011;64651;47.540;19.088;2024-01-30T21:14:34;53.33;;;21.37;;
75971;SDS011;64651;47.540;19.088;2024-01-30T21:19:36;51.40;;;21.83;;
75971;SDS011;64651;47.540;19.088;2024-01-30T21:24:39;51.00;;;20.95;;
75971;SDS011;64651;47.540;19.088;2024-01-30T21:29:41;51.15;;;21.15;;
75971;SDS011;64651;47.540;19.088;2024-01-30T21:34:45;52.53;;;21.40;;
75971;SDS011;64651;47.540;19.088;2024-01-30T21:39:47;55.28;;;23.33;;
75971;SDS011;64651;47.540;19.088;2024-01-30T21:44:49;56.92;;;23.95;;
75971;SDS011;64651;47.540;19.088;2024-01-30T21:49:52;54.58;;;23.35;;
75971;SDS011;64651;47.540;19.088;2024-01-30T21:54:55;51.55;;;23.33;;
75971;SDS011;64651;47.540;19.088;2024-01-30T21:59:57;53.47;;;23.00;;
75971;SDS011;64651;47.540;19.088;2024-01-30T22:04:59;54.65;;;23.15;;
75971;SDS011;64651;47.540;19.088;2024-01-30T22:10:02;48.75;;;22.65;;
75971;SDS011;64651;47.540;19.088;2024-01-30T22:15:05;49.47;;;22.58;;
75971;SDS011;64651;47.540;19.088;2024-01-30T22:20:09;53.92;;;23.30;;
75971;SDS011;64651;47.540;19.088;2024-01-30T22:25:12;53.00;;;23.27;;
75971;SDS011;64651;47.540;19.088;2024-01-30T22:30:14;56.58;;;24.10;;
75971;SDS011;64651;47.540;19.088;2024-01-30T22:35:16;57.80;;;22.90;;
75971;SDS011;64651;47.540;19.088;2024-01-30T22:40:19;55.75;;;23.62;;
75971;SDS011;64651;47.540;19.088;2024-01-30T22:45:21;51.67;;;23.40;;
75971;SDS011;64651;47.540;19.088;2024-01-30T22:50:23;52.47;;;23.13;;
75971;SDS011;64651;47.540;19.088;2024-01-30T22:55:25;56.47;;;23.60;;
75971;SDS011;64651;47.540;19.088;2024-01-30T23:00:29;49.78;;;22.67;;
75971;SDS011;64651;47.540;19.088;2024-01-30T23:05:33;57.25;;;23.87;;
75971;SDS011;64651;47.540;19.088;2024-01-30T23:10:35;55.65;;;23.60;;
75971;SDS011;64651;47.540;19.088;2024-01-30T23:15:37;55.87;;;24.93;;
75971;SDS011;64651;47.540;19.088;2024-01-30T23:20:40;54.33;;;25.42;;
75971;SDS011;64651;47.540;19.088;2024-01-30T23:25:42;55.83;;;23.92;;
75971;SDS011;64651;47.540;19.088;2024-01-30T23:30:44;55.95;;;24.27;;
75971;SDS011;64651;47.540;19.088;2024-01-30T23:35:46;61.50;;;26.10;;
75971;SDS011;64651;47.540;19.088;2024-01-30T23:40:51;61.17;;;26.73;;
75971;SDS011;64651;47.540;19.088;2024-01-30T23:45:53;58.10;;;25.25;;
75971;SDS011;64651;47.540;19.088;2024-01-30T23:50:56;57.22;;;25.45;;
75971;SDS011;64651;47.540;19.088;2024-01-30T23:55:58;59.20;;;25.40;;
